»·PEaware :: NKS788 KSAN-KLAS

NKS788 :: KSAN-KLAS

FLIGHT INFORMATION

Flight Status: Arrived
Operator:
Spirit Airlines
More flights by this operator :: More flights under this callsign
Pilot: Luc P. (3613)
Aircraft: AIRBUS A321
(A321)
More flights by this aircraft type
Origin: KSAN San Diego Intl-Lindbergh
United States
Destination: KLAS McCarran Intl
United States
More flights between these airports :: More routes between these airports
Route: PADRZ2 CHKNN SEBBY YELAH MISEN KEPEC6
File this flight plan on PilotEdge
Remarks:
Altitude:
(Current/Filed)
29,000ft
Speed:
(Current/Filed)
438kts
Departed: 04-Jan-21 08:17 AM
Arrived: 04-Jan-21 09:11 AM
Distance/Time
Traveled:
225nm/0:54
Distance/Time
To Go:
Arrived

Flight Plot

Page will automatically refresh every two minutes.

Flight plan parsing failed; only flown route is shown


Map Options




Map Legend


Flown Route
Filed Route
Departure Airport
Arrival Airport
Navaid (VOR, NDB)
Fix

Horizontal Profiles

Position Reports

Time Latitude Longitude Heading Altitude Ground
Speed
04-Jan-21 07:56 32.733364 -117.199089 117 26ft 0kts
04-Jan-21 07:57 32.733364 -117.199089 117 26ft 0kts
04-Jan-21 07:58 32.733364 -117.199089 117 26ft 0kts
04-Jan-21 07:59 32.733364 -117.199089 117 26ft 0kts
04-Jan-21 08:00 32.733364 -117.199089 117 26ft 0kts
04-Jan-21 08:01 32.733364 -117.199089 117 26ft 0kts
04-Jan-21 08:02 32.733364 -117.199089 117 26ft 0kts
04-Jan-21 08:03 32.733364 -117.199089 117 26ft 0kts
04-Jan-21 08:04 32.733364 -117.199089 117 26ft 0kts
04-Jan-21 08:05 32.733364 -117.199089 119 26ft 0kts
04-Jan-21 08:06 32.733601 -117.199652 89 26ft 1kts
04-Jan-21 08:07 32.733429 -117.199835 11 26ft 0kts
04-Jan-21 08:08 32.733430 -117.199835 11 26ft 0kts
04-Jan-21 08:09 32.733624 -117.199782 13 26ft 3kts
04-Jan-21 08:10 32.734777 -117.198953 106 26ft 9kts
04-Jan-21 08:11 32.733858 -117.195152 105 26ft 14kts
04-Jan-21 08:12 32.732649 -117.190192 106 26ft 16kts
04-Jan-21 08:13 32.731275 -117.184508 106 26ft 18kts
04-Jan-21 08:14 32.729851 -117.178663 105 26ft 11kts
04-Jan-21 08:15 32.730200 -117.175988 323 26ft 9kts
04-Jan-21 08:16 32.737160 -117.204807 286 489ft 166kts
04-Jan-21 08:17 32.762358 -117.253131 306 2620ft 189kts
04-Jan-21 08:18 32.796897 -117.313037 305 4355ft 255kts
04-Jan-21 08:19 32.841520 -117.382452 306 7422ft 271kts
04-Jan-21 08:20 32.887844 -117.454352 305 10376ft 281kts
04-Jan-21 08:21 32.940706 -117.536684 305 11715ft 343kts
04-Jan-21 08:22 32.999671 -117.628571 304 14330ft 355kts
04-Jan-21 08:23 33.060976 -117.722144 309 16768ft 367kts
04-Jan-21 08:24 33.138373 -117.804804 315 18960ft 380kts
04-Jan-21 08:25 33.220228 -117.887086 316 20915ft 391kts
04-Jan-21 08:26 33.324066 -117.921598 6 22593ft 430kts
04-Jan-21 08:27 33.443886 -117.897064 4 24142ft 443kts
04-Jan-21 08:28 33.567043 -117.874148 4 25848ft 445kts
04-Jan-21 08:29 33.689457 -117.851447 4 27565ft 443kts
04-Jan-21 08:30 33.811381 -117.828761 5 29009ft 443kts
04-Jan-21 08:31 33.935177 -117.805663 5 29277ft 456kts
04-Jan-21 08:32 34.060419 -117.780897 13 29266ft 459kts
04-Jan-21 08:33 34.156638 -117.681987 51 29279ft 465kts
04-Jan-21 08:34 34.237709 -117.560637 50 29279ft 464kts
04-Jan-21 08:35 34.319510 -117.440221 50 29279ft 464kts
04-Jan-21 08:36 34.401824 -117.318804 50 29280ft 464kts
04-Jan-21 08:37 34.483243 -117.198002 50 29277ft 463kts
04-Jan-21 08:38 34.564688 -117.077095 50 29279ft 463kts
04-Jan-21 08:39 34.645874 -116.956226 50 29294ft 462kts
04-Jan-21 08:41 34.740217 -116.815310 49 29317ft 460kts
04-Jan-21 08:41 34.807078 -116.715105 49 29137ft 454kts
04-Jan-21 08:42 34.891669 -116.607063 36 28135ft 434kts
04-Jan-21 08:43 34.986408 -116.516130 35 27064ft 435kts
04-Jan-21 08:44 35.081106 -116.424191 35 24861ft 438kts
04-Jan-21 08:45 35.168993 -116.320667 43 24074ft 440kts
04-Jan-21 08:46 35.254902 -116.212345 43 21674ft 441kts
04-Jan-21 08:47 35.338405 -116.107215 43 19742ft 424kts
04-Jan-21 08:48 35.418938 -116.005577 43 17830ft 409kts
04-Jan-21 08:49 35.496538 -115.907385 43 15972ft 395kts
04-Jan-21 08:50 35.571937 -115.811700 43 14124ft 384kts
04-Jan-21 08:51 35.642847 -115.721411 43 13176ft 343kts
04-Jan-21 08:52 35.705053 -115.642019 43 13004ft 305kts
04-Jan-21 08:53 35.769594 -115.574256 6 12998ft 288kts
04-Jan-21 08:54 35.841374 -115.530192 59 12861ft 320kts
04-Jan-21 08:55 35.882465 -115.433108 61 11182ft 312kts
04-Jan-21 08:56 35.921273 -115.343855 62 9483ft 281kts
04-Jan-21 08:57 35.958126 -115.262619 62 7770ft 257kts
04-Jan-21 08:58 35.974876 -115.182134 91 7067ft 238kts
04-Jan-21 08:59 35.974530 -115.100851 91 8000ft 234kts
04-Jan-21 09:00 35.974311 -115.020469 91 8005ft 234kts
04-Jan-21 09:01 35.981908 -114.941346 71 7947ft 231kts
04-Jan-21 09:02 36.003374 -114.866710 71 7008ft 218kts
04-Jan-21 09:03 36.027869 -114.804240 28 5783ft 207kts
04-Jan-21 09:04 36.066102 -114.841735 289 5031ft 205kts
04-Jan-21 09:05 36.073837 -114.909625 270 5004ft 193kts
04-Jan-21 09:06 36.073902 -114.975747 269 4446ft 184kts
04-Jan-21 09:07 36.073793 -115.035035 268 3512ft 155kts
04-Jan-21 09:08 36.073617 -115.087662 270 2743ft 151kts
04-Jan-21 09:09 36.073649 -115.138913 269 2083ft 120kts
04-Jan-21 09:10 36.074306 -115.154242 300 2134ft 5kts
04-Jan-21 09:11 36.075157 -115.155915 312 2139ft 7kts
04-Jan-21 09:12 36.078074 -115.158253 359 2142ft 15kts
04-Jan-21 09:13 36.081624 -115.157445 91 2132ft 11kts
04-Jan-21 09:14 36.083011 -115.155739 357 2123ft 9kts
04-Jan-21 09:15 36.084518 -115.153784 337 2117ft 5kts
04-Jan-21 09:16 36.084861 -115.153963 336 2117ft 0kts
04-Jan-21 09:18 36.084861 -115.153963 336 2117ft 0kts
04-Jan-21 09:19 36.084861 -115.153963 336 2117ft 0kts
04-Jan-21 09:20 36.084861 -115.153963 336 2117ft 0kts
04-Jan-21 09:21 36.084861 -115.153963 336 2117ft 0kts
04-Jan-21 09:22 36.084861 -115.153963 336 2117ft 0kts
04-Jan-21 09:23 36.084861 -115.153963 336 2117ft 0kts
04-Jan-21 09:24 36.084861 -115.153963 336 2117ft 0kts
04-Jan-21 09:25 36.084861 -115.153963 336 2117ft 0kts

Navigation Log

Ident Type
Flight plan parsing failed, navigation log unavailable